Time;durP1;ratioP1;P1;durP2;ratioP2;P2;SDS_P1;SDS_P2;PMS_P1;PMS_P2;Temp;Humidity;BMP_temperature;BMP_pressure;BME280_temperature;BME280_humidity;BME280_pressure;Samples;Min_cycle;Max_cycle;Signal;HPM_P1;HPM_P2
2023/12/10 00:02:14;;;;;;;3.47;1.52;;;;;;;0.84;92.65;99449.22;5106791;28;20027;-69
2023/12/10 00:04:40;;;;;;;2.60;1.85;;;;;;;1.03;91.11;99450.34;5107216;28;20153;-70
2023/12/10 00:07:06;;;;;;;7.80;3.45;;;;;;;1.06;90.26;99424.84;5088582;28;20437;-70
2023/12/10 00:09:31;;;;;;;5.28;2.45;;;;;;;0.90;91.16;99428.88;5106857;28;20023;-69
2023/12/10 00:11:57;;;;;;;2.28;2.08;;;;;;;0.78;92.24;99442.31;5106747;28;20043;-70
2023/12/10 00:14:24;;;;;;;9.30;4.20;;;;;;;0.69;93.35;99432.81;5106635;28;20373;-68
2023/12/10 00:16:50;;;;;;;8.32;4.93;;;;;;;1.07;90.74;99425.72;5106532;28;20023;-69
2023/12/10 00:19:15;;;;;;;5.05;3.83;;;;;;;1.22;89.04;99441.25;5088216;28;20020;-70
2023/12/10 00:21:41;;;;;;;8.38;5.18;;;;;;;0.94;90.60;99440.84;5106512;28;20502;-69
2023/12/10 00:24:06;;;;;;;6.88;3.20;;;;;;;0.83;91.85;99404.06;5088096;28;20020;-69
2023/12/10 00:26:32;;;;;;;6.30;3.20;;;;;;;0.89;91.13;99445.03;5106398;28;20059;-70
2023/12/10 00:28:57;;;;;;;2.00;1.65;;;;;;;0.93;91.07;99441.69;5106214;28;20541;-70
2023/12/10 00:31:22;;;;;;;3.53;2.03;;;;;;;1.18;88.52;99449.72;5105942;28;20028;-70
2023/12/10 00:33:48;;;;;;;3.38;2.60;;;;;;;1.07;89.51;99453.84;5088001;28;20034;-70
2023/12/10 00:36:15;;;;;;;15.20;5.50;;;;;;;0.89;90.91;99441.63;5106148;28;20032;-71
2023/12/10 00:38:41;;;;;;;2.75;1.25;;;;;;;0.93;90.98;99446.81;5087865;28;20043;-71
2023/12/10 00:41:09;;;;;;;11.18;2.35;;;;;;;0.89;91.05;99432.25;5106363;28;20031;-70
2023/12/10 00:43:35;;;;;;;3.67;2.65;;;;;;;0.72;91.02;99440.50;5106325;28;20032;-71
2023/12/10 00:46:00;;;;;;;8.60;7.80;;;;;;;0.86;90.12;99450.09;5087950;28;20501;-71
2023/12/10 00:48:25;;;;;;;5.05;2.08;;;;;;;0.74;90.99;99456.75;5087891;28;20024;-71
2023/12/10 00:50:51;;;;;;;2.70;1.65;;;;;;;0.94;90.49;99427.22;5106222;28;20036;-71
2023/12/10 00:53:16;;;;;;;4.50;4.00;;;;;;;0.88;90.61;99433.09;5106060;28;20024;-71
2023/12/10 00:55:42;;;;;;;1.65;1.55;;;;;;;0.79;nan;99438.91;5087572;28;20020;-70
2023/12/10 00:58:07;;;;;;;1.25;1.20;;;;;;;0.72;90.96;99442.19;5105753;28;20342;-71
2023/12/10 01:00:32;;;;;;;5.95;3.83;;;;;;;0.74;91.28;99430.31;5105988;28;20501;-71
2023/12/10 01:02:58;;;;;;;2.42;2.25;;;;;;;0.87;89.88;99439.03;5105466;28;20092;-71
2023/12/10 01:05:23;;;;;;;12.85;5.60;;;;;;;0.89;90.47;99454.41;5087446;28;20139;-71
2023/12/10 01:07:49;;;;;;;4.47;4.18;;;;;;;0.79;91.50;99436.38;5086996;28;20023;-71
2023/12/10 01:10:14;;;;;;;10.85;3.85;;;;;;;1.02;88.96;99447.78;5105627;28;20039;-70
2023/12/10 01:12:40;;;;;;;1.48;1.38;;;;;;;0.87;89.99;99433.94;5105708;28;20027;-72
2023/12/10 01:15:05;;;;;;;16.90;6.20;;;;;;;0.71;90.75;99451.56;5105492;28;20035;-72
2023/12/10 01:17:34;;;;;;;8.23;4.75;;;;;;;0.65;91.53;99455.72;5105464;28;20020;-72
2023/12/10 01:20:00;;;;;;;2.95;2.75;;;;;;;0.89;90.30;99437.38;5105607;28;20031;-72
2023/12/10 01:22:26;;;;;;;2.83;2.28;;;;;;;0.64;91.30;99448.91;5087341;28;20021;-72
2023/12/10 01:24:52;;;;;;;3.00;2.72;;;;;;;0.65;91.84;99442.94;5105435;28;20050;-72
2023/12/10 01:27:18;;;;;;;3.97;3.67;;;;;;;0.76;91.54;99461.00;5105605;28;20016;-71
2023/12/10 01:29:43;;;;;;;4.45;3.00;;;;;;;1.07;89.65;99447.00;5105407;28;20077;-72
2023/12/10 01:32:10;;;;;;;8.35;5.13;;;;;;;0.85;89.96;99461.16;5105061;28;20079;-72
2023/12/10 01:34:36;;;;;;;10.77;3.13;;;;;;;0.93;89.11;99448.47;5086921;28;20028;-72
2023/12/10 01:37:01;;;;;;;2.33;2.22;;;;;;;1.07;87.56;99456.38;5105498;28;20095;-72
2023/12/10 01:39:27;;;;;;;1.95;1.85;;;;;;;0.80;89.20;99460.22;5086832;28;20438;-72
2023/12/10 01:41:52;;;;;;;5.18;2.50;;;;;;;0.85;88.73;99463.69;5086818;28;20024;-70
2023/12/10 01:44:18;;;;;;;3.38;1.67;;;;;;;0.94;88.42;99445.94;5104053;28;20024;-70
2023/12/10 01:46:45;;;;;;;5.97;4.50;;;;;;;1.09;87.39;99462.38;5105169;28;20024;-70
2023/12/10 01:49:11;;;;;;;3.15;2.85;;;;;;;0.77;88.86;99476.34;5086653;28;20038;-71
2023/12/10 01:51:37;;;;;;;3.35;3.15;;;;;;;0.81;89.15;99469.59;5104932;28;20058;-70
2023/12/10 01:54:03;;;;;;;1.60;1.50;;;;;;;0.93;88.66;99461.25;5105039;28;20020;-70
2023/12/10 01:56:30;;;;;;;0.95;0.95;;;;;;;0.67;89.56;99470.22;5104950;28;20044;-71
2023/12/10 01:58:56;;;;;;;13.82;5.93;;;;;;;0.93;88.10;99469.81;5086920;28;20464;-70
2023/12/10 02:01:23;;;;;;;7.97;5.57;;;;;;;0.82;88.98;99474.75;5104805;28;20051;-70
2023/12/10 02:03:49;;;;;;;4.72;3.80;;;;;;;1.15;87.19;99471.84;5104811;28;20024;-69
2023/12/10 02:06:15;;;;;;;4.10;1.75;;;;;;;0.77;88.73;99465.28;5087487;28;20048;-70
2023/12/10 02:08:40;;;;;;;2.08;1.98;;;;;;;0.70;89.80;99461.78;5084694;28;20024;-70
2023/12/10 02:11:06;;;;;;;4.88;3.13;;;;;;;0.77;88.85;99478.91;5066515;28;20058;-69
2023/12/10 02:13:31;;;;;;;8.18;4.40;;;;;;;0.84;88.76;99483.31;5084604;28;20029;-70
2023/12/10 02:15:57;;;;;;;1.13;1.13;;;;;;;0.98;87.28;99463.06;5066315;28;20029;-70
2023/12/10 02:18:22;;;;;;;2.13;1.92;;;;;;;0.82;88.05;99461.09;5084396;28;20024;-71
2023/12/10 02:20:48;;;;;;;5.97;2.28;;;;;;;0.79;87.94;99453.38;5084336;28;20017;-70
2023/12/10 02:23:35;;;;;;;6.47;3.38;;;;;;;0.69;88.91;99453.25;5084428;28;20032;-70
2023/12/10 02:26:00;;;;;;;5.40;3.47;;;;;;;0.66;89.69;99455.75;5084461;28;20017;-70
2023/12/10 02:28:26;;;;;;;2.78;1.45;;;;;;;0.77;89.52;99462.75;5084410;28;20348;-70
2023/12/10 02:30:51;;;;;;;1.27;1.05;;;;;;;0.83;88.46;99433.00;5066419;28;20044;-71
2023/12/10 02:33:17;;;;;;;1.52;1.42;;;;;;;0.73;89.43;99461.81;5084154;28;20045;-69
2023/12/10 02:35:42;;;;;;;5.00;2.40;;;;;;;0.69;89.72;99473.69;5066384;28;20024;-70
2023/12/10 02:38:08;;;;;;;1.00;0.98;;;;;;;0.74;89.85;99461.84;5084532;28;20021;-70
2023/12/10 02:40:33;;;;;;;11.65;3.80;;;;;;;0.73;90.37;99465.25;5066272;28;20020;-69
2023/12/10 02:43:00;;;;;;;4.57;2.30;;;;;;;0.83;89.47;99473.91;5084055;28;20028;-71
2023/12/10 02:45:25;;;;;;;1.48;1.38;;;;;;;0.78;89.37;99475.53;5066219;28;20088;-70
2023/12/10 02:47:51;;;;;;;1.85;1.67;;;;;;;0.74;89.90;99477.19;5065914;28;20024;-69
2023/12/10 02:50:16;;;;;;;1.55;1.52;;;;;;;0.91;89.35;99484.25;5084024;28;20025;-69
2023/12/10 02:52:42;;;;;;;6.35;4.25;;;;;;;0.78;89.25;99480.66;5084433;28;20086;-69
2023/12/10 02:55:11;;;;;;;1.15;1.08;;;;;;;0.80;88.84;99468.75;5067114;28;20017;-71
2023/12/10 02:57:36;;;;;;;3.13;2.75;;;;;;;0.82;89.06;99481.53;5053476;28;20080;-71
2023/12/10 03:00:03;;;;;;;11.10;6.50;;;;;;;0.95;87.49;99485.16;5069878;28;20013;-71
2023/12/10 03:02:28;;;;;;;2.47;2.28;;;;;;;0.99;87.10;99479.28;5087681;28;20381;-69
2023/12/10 03:04:53;;;;;;;2.38;1.48;;;;;;;0.82;88.81;99474.75;5087838;28;20016;-70
2023/12/10 03:07:19;;;;;;;1.55;1.45;;;;;;;1.04;86.53;99464.84;5069609;28;20031;-70
2023/12/10 03:09:44;;;;;;;8.18;1.92;;;;;;;1.08;86.20;99479.41;5087749;28;20017;-68
2023/12/10 03:12:10;;;;;;;1.65;1.55;;;;;;;0.96;86.71;99481.75;5088117;28;20024;-68
2023/12/10 03:14:35;;;;;;;3.88;2.53;;;;;;;0.82;88.30;99484.97;5087551;28;20063;-68
2023/12/10 03:17:00;;;;;;;2.50;2.28;;;;;;;0.98;87.19;99493.75;5087724;28;20043;-68
2023/12/10 03:19:26;;;;;;;3.53;3.25;;;;;;;0.98;87.07;99490.31;5087602;28;20024;-68
2023/12/10 03:21:51;;;;;;;7.97;3.08;;;;;;;0.98;87.00;99478.41;5087540;28;20066;-68
2023/12/10 03:24:16;;;;;;;2.63;2.42;;;;;;;1.15;85.49;99477.78;5069664;28;20074;-69
2023/12/10 03:26:42;;;;;;;1.65;1.55;;;;;;;0.89;86.74;99468.03;5087528;28;20388;-68
2023/12/10 03:29:07;;;;;;;5.18;2.55;;;;;;;1.02;86.41;99479.31;5087392;28;20150;-68
2023/12/10 03:31:33;;;;;;;0.80;0.80;;;;;;;0.85;87.35;99473.94;5069363;28;20024;-67
2023/12/10 03:33:58;;;;;;;3.63;2.38;;;;;;;0.79;87.72;99469.59;5087476;28;20090;-67
2023/12/10 03:36:23;;;;;;;0.77;0.77;;;;;;;0.84;87.79;99479.88;5068864;28;20148;-67
2023/12/10 03:38:49;;;;;;;2.78;2.58;;;;;;;0.92;87.11;99485.13;5087441;28;20051;-67
2023/12/10 03:41:14;;;;;;;7.15;2.40;;;;;;;0.96;86.12;99490.28;5087161;28;20028;-66
2023/12/10 03:43:40;;;;;;;2.33;2.00;;;;;;;0.95;85.64;99495.38;5087271;28;20029;-70
2023/12/10 03:46:05;;;;;;;2.42;1.83;;;;;;;0.99;85.75;99510.78;5087209;28;20035;-66
2023/12/10 03:48:30;;;;;;;10.07;3.55;;;;;;;0.94;86.33;99498.78;5086869;28;20056;-67
2023/12/10 03:50:56;;;;;;;7.88;4.55;;;;;;;0.88;86.60;99484.19;5087180;28;20079;-67
2023/12/10 03:53:22;;;;;;;3.03;2.35;;;;;;;1.04;85.98;99485.31;5087039;28;20067;-67
2023/12/10 03:55:47;;;;;;;6.38;2.97;;;;;;;1.01;86.19;99484.41;5086969;28;20047;-67
2023/12/10 03:58:13;;;;;;;0.80;0.80;;;;;;;1.06;85.60;99482.78;5068741;28;20481;-67
2023/12/10 04:00:38;;;;;;;2.05;1.30;;;;;;;0.82;87.15;99484.09;5086793;28;20060;-67
2023/12/10 04:03:03;;;;;;;3.17;2.40;;;;;;;0.86;87.15;99475.66;5086655;28;20035;-67
2023/12/10 04:05:29;;;;;;;7.72;2.90;;;;;;;0.92;86.73;99485.97;5086667;28;20032;-68
2023/12/10 04:07:55;;;;;;;1.88;1.77;;;;;;;0.88;86.91;99462.91;5085909;28;20052;-67
2023/12/10 04:10:20;;;;;;;2.58;2.38;;;;;;;0.80;87.78;99470.47;5086618;28;20024;-68
2023/12/10 04:12:46;;;;;;;2.08;1.67;;;;;;;0.88;87.78;99468.88;5086612;28;20385;-66
2023/12/10 04:15:11;;;;;;;6.18;3.42;;;;;;;0.98;87.06;99473.31;5086553;28;20028;-68
2023/12/10 04:17:36;;;;;;;8.98;2.30;;;;;;;0.89;87.50;99460.38;5086393;28;20167;-66
2023/12/10 04:20:03;;;;;;;1.13;1.13;;;;;;;0.99;86.71;99458.84;5086549;28;20052;-66
2023/12/10 04:22:28;;;;;;;2.72;2.22;;;;;;;0.87;86.99;99456.94;5086641;28;20028;-66
2023/12/10 04:24:53;;;;;;;5.93;4.47;;;;;;;0.86;87.77;99485.88;5086459;28;20051;-66
2023/12/10 04:27:19;;;;;;;1.88;1.70;;;;;;;0.95;87.54;99452.81;5086965;28;20037;-67
2023/12/10 04:29:44;;;;;;;2.63;2.33;;;;;;;0.90;87.68;99472.31;5068229;28;20023;-67
2023/12/10 04:32:10;;;;;;;10.25;3.45;;;;;;;0.86;88.31;99455.22;5086489;28;20031;-66
2023/12/10 04:34:36;;;;;;;2.67;2.40;;;;;;;0.91;88.20;99476.56;5067805;28;20025;-66
2023/12/10 04:37:01;;;;;;;0.80;0.80;;;;;;;0.91;88.29;99468.91;5068399;28;20031;-66
2023/12/10 04:39:27;;;;;;;2.83;2.10;;;;;;;0.94;87.93;99455.34;5086008;28;20141;-66
2023/12/10 04:41:53;;;;;;;2.35;2.03;;;;;;;0.93;88.07;99446.81;5086325;28;20031;-67
2023/12/10 04:44:18;;;;;;;0.45;0.45;;;;;;;1.03;87.40;99458.03;5085954;28;20046;-66
2023/12/10 04:46:44;;;;;;;3.67;2.95;;;;;;;0.95;87.81;99457.03;5086001;28;20357;-67
2023/12/10 04:49:09;;;;;;;2.90;2.35;;;;;;;0.95;87.55;99440.03;5067658;28;20021;-65
2023/12/10 04:51:35;;;;;;;1.42;1.35;;;;;;;1.06;87.11;99452.09;5085728;28;20076;-66
2023/12/10 04:54:00;;;;;;;4.70;1.90;;;;;;;0.92;87.87;99449.34;5086223;28;20016;-66
2023/12/10 04:56:25;;;;;;;4.53;4.18;;;;;;;0.93;87.75;99461.25;5067598;28;20052;-66
2023/12/10 04:58:51;;;;;;;2.38;2.25;;;;;;;1.06;86.69;99449.53;5086159;28;20020;-66
2023/12/10 05:01:17;;;;;;;1.42;1.38;;;;;;;1.11;86.26;99451.34;5085468;28;20029;-65
2023/12/10 05:03:42;;;;;;;3.20;2.40;;;;;;;1.11;85.85;99459.00;5067555;28;20492;-68
2023/12/10 05:06:08;;;;;;;12.18;2.72;;;;;;;1.09;85.67;99457.25;5085514;28;20456;-66
2023/12/10 05:08:33;;;;;;;5.60;3.53;;;;;;;1.01;86.55;99457.13;5085321;28;20465;-65
2023/12/10 05:10:59;;;;;;;1.98;1.83;;;;;;;1.00;86.77;99460.53;5085513;28;20030;-66
2023/12/10 05:13:24;;;;;;;4.45;4.13;;;;;;;0.98;87.26;99469.88;5085375;28;20084;-65
2023/12/10 05:15:49;;;;;;;3.65;1.10;;;;;;;0.96;87.59;99462.19;5085247;28;20028;-65
2023/12/10 05:18:15;;;;;;;6.43;4.00;;;;;;;0.97;87.63;99461.38;5085267;28;20024;-66
2023/12/10 05:20:40;;;;;;;0.95;0.95;;;;;;;1.15;86.92;99457.34;5085357;28;20075;-67
2023/12/10 05:23:06;;;;;;;3.60;2.53;;;;;;;1.19;86.14;99451.44;5067228;28;20020;-66
2023/12/10 05:25:31;;;;;;;2.88;2.35;;;;;;;1.08;86.67;99456.41;5085281;28;20028;-67
2023/12/10 05:27:57;;;;;;;13.30;11.90;;;;;;;1.18;85.69;99459.94;5067127;28;20158;-66
2023/12/10 05:30:23;;;;;;;18.02;4.20;;;;;;;1.16;85.91;99466.75;5084947;28;20021;-66
2023/12/10 05:32:48;;;;;;;0.60;0.60;;;;;;;0.93;86.67;99448.47;5067295;28;20063;-65
2023/12/10 05:35:14;;;;;;;4.25;3.95;;;;;;;1.01;87.27;99461.41;5085259;28;20023;-66
2023/12/10 05:37:39;;;;;;;9.30;2.50;;;;;;;1.13;86.91;99466.69;5085569;28;20028;-66
2023/12/10 05:40:05;;;;;;;4.55;2.33;;;;;;;1.19;86.36;99448.91;5085363;28;20063;-67
2023/12/10 05:42:30;;;;;;;4.43;3.78;;;;;;;1.08;86.59;99474.31;5084885;28;20093;-67
2023/12/10 05:44:56;;;;;;;6.13;3.42;;;;;;;1.08;87.13;99465.75;5085034;28;20074;-66
2023/12/10 05:47:22;;;;;;;8.98;4.28;;;;;;;1.21;85.95;99462.56;5066980;28;20055;-67
2023/12/10 05:49:47;;;;;;;1.48;1.42;;;;;;;1.10;87.00;99464.09;5084938;28;20066;-66
2023/12/10 05:52:13;;;;;;;4.57;3.30;;;;;;;1.32;85.78;99465.28;5066685;28;20025;-68
2023/12/10 05:54:38;;;;;;;7.20;2.28;;;;;;;1.22;86.06;99464.28;5084977;28;20088;-66
2023/12/10 05:57:04;;;;;;;1.30;1.20;;;;;;;1.20;86.62;99477.84;5084553;28;20107;-66
2023/12/10 05:59:29;;;;;;;2.85;2.67;;;;;;;1.16;86.89;99471.84;5066593;28;20027;-66
2023/12/10 06:01:56;;;;;;;6.32;4.50;;;;;;;1.14;87.15;99476.09;5066610;28;20029;-66
2023/12/10 06:04:21;;;;;;;3.03;2.72;;;;;;;1.16;87.31;99464.19;5084583;28;20025;-65
2023/12/10 06:06:46;;;;;;;3.53;2.17;;;;;;;1.43;85.55;99483.31;5084891;28;20020;-67
2023/12/10 06:09:12;;;;;;;2.75;1.60;;;;;;;1.30;86.20;99477.16;5066550;28;20054;-65
2023/12/10 06:11:38;;;;;;;6.20;4.05;;;;;;;1.21;86.48;99474.47;5084941;28;20067;-65
2023/12/10 06:14:04;;;;;;;3.03;2.63;;;;;;;1.22;87.22;99488.97;5066547;28;20060;-67
2023/12/10 06:16:29;;;;;;;1.48;1.38;;;;;;;1.32;86.72;99478.06;5084683;28;20035;-66
2023/12/10 06:18:54;;;;;;;3.10;2.45;;;;;;;1.23;86.87;99481.34;5084340;28;20143;-66
2023/12/10 06:21:20;;;;;;;4.93;3.13;;;;;;;1.27;87.35;99496.72;5084498;28;20036;-66
2023/12/10 06:23:46;;;;;;;8.20;2.97;;;;;;;1.25;86.91;99501.81;5084615;28;20029;-66
2023/12/10 06:26:12;;;;;;;6.88;3.80;;;;;;;1.26;87.76;99505.25;5084642;28;20128;-67
2023/12/10 06:28:37;;;;;;;1.58;1.45;;;;;;;1.45;86.47;99507.22;5084504;28;20485;-65
2023/12/10 06:31:03;;;;;;;6.35;3.03;;;;;;;1.32;87.10;99505.31;5087310;28;20052;-66
2023/12/10 06:33:28;;;;;;;2.72;2.60;;;;;;;1.33;87.18;99504.47;5088536;28;20028;-65
2023/12/10 06:35:53;;;;;;;4.40;2.38;;;;;;;1.33;87.52;99512.16;5088238;28;20028;-67
2023/12/10 06:38:19;;;;;;;2.72;2.53;;;;;;;1.35;87.30;99515.59;5070373;28;20056;-66
2023/12/10 06:40:44;;;;;;;3.30;3.00;;;;;;;1.36;87.10;99510.50;5088407;28;20461;-68
2023/12/10 06:43:10;;;;;;;2.05;1.95;;;;;;;1.38;87.15;99507.09;5070209;28;20074;-66
2023/12/10 06:45:35;;;;;;;1.50;1.42;;;;;;;1.41;86.60;99518.25;5088088;28;20275;-67
2023/12/10 06:48:01;;;;;;;1.77;1.65;;;;;;;1.50;85.93;99534.56;5088149;28;20022;-65
2023/12/10 06:50:27;;;;;;;10.50;4.55;;;;;;;1.38;86.37;99538.66;5069980;28;20028;-66
2023/12/10 06:52:52;;;;;;;2.80;2.60;;;;;;;1.29;86.86;99525.75;5088192;28;20021;-66
2023/12/10 06:55:17;;;;;;;2.33;2.13;;;;;;;1.31;87.04;99529.19;5088223;28;20104;-67
2023/12/10 06:57:43;;;;;;;8.52;4.80;;;;;;;1.67;85.58;99527.13;5087853;28;20055;-67
2023/12/10 07:00:09;;;;;;;7.65;2.22;;;;;;;1.64;84.70;99543.31;5087987;28;20111;-68
2023/12/10 07:02:34;;;;;;;2.65;2.45;;;;;;;1.50;84.72;99526.91;5087923;28;20457;-67
2023/12/10 07:05:00;;;;;;;14.07;5.93;;;;;;;1.39;85.56;99530.13;5069791;28;20040;-66
2023/12/10 07:07:25;;;;;;;1.80;1.58;;;;;;;1.38;85.97;99540.34;5087903;28;20447;-65
2023/12/10 07:09:50;;;;;;;3.30;3.10;;;;;;;1.40;85.88;99536.13;5087529;28;20024;-66
2023/12/10 07:12:16;;;;;;;6.53;4.43;;;;;;;1.40;86.26;99529.31;5070016;28;20028;-66
2023/12/10 07:14:41;;;;;;;3.00;2.70;;;;;;;1.50;86.04;99534.56;5087743;28;20031;-68
2023/12/10 07:17:06;;;;;;;7.80;3.55;;;;;;;1.52;85.21;99532.91;5069600;28;20056;-66
2023/12/10 07:19:32;;;;;;;5.45;3.25;;;;;;;1.32;86.30;99528.34;5087531;28;20017;-66
2023/12/10 07:21:57;;;;;;;0.85;0.85;;;;;;;1.44;86.31;99535.31;5087785;28;20393;-67
2023/12/10 07:24:23;;;;;;;1.70;1.40;;;;;;;1.51;85.76;99564.41;5087440;28;20020;-66
2023/12/10 07:26:48;;;;;;;0.77;0.77;;;;;;;1.42;86.29;99558.31;5087513;28;20025;-66
2023/12/10 07:29:14;;;;;;;1.88;1.77;;;;;;;1.57;85.37;99554.28;5069252;28;20024;-68
2023/12/10 07:31:39;;;;;;;4.78;3.42;;;;;;;1.54;85.44;99549.13;5087452;28;20039;-66
2023/12/10 07:34:04;;;;;;;1.52;1.30;;;;;;;1.57;85.33;99555.16;5087511;28;20028;-66
2023/12/10 07:36:30;;;;;;;11.13;3.22;;;;;;;1.52;85.39;99567.00;5069244;28;20028;-66
2023/12/10 07:38:55;;;;;;;2.53;1.77;;;;;;;1.58;84.87;99545.78;5087361;28;20025;-65
2023/12/10 07:41:21;;;;;;;5.55;3.33;;;;;;;1.47;85.77;99561.81;5085866;28;20070;-67
2023/12/10 07:43:46;;;;;;;2.70;2.17;;;;;;;1.53;85.52;99542.28;5069042;28;20021;-65
2023/12/10 07:46:12;;;;;;;8.10;3.60;;;;;;;1.41;85.77;99519.94;5068851;28;20031;-66
2023/12/10 07:48:37;;;;;;;3.50;1.77;;;;;;;1.40;86.48;99538.69;5087067;28;20042;-66
2023/12/10 07:51:03;;;;;;;8.32;5.15;;;;;;;1.48;86.07;99552.47;5087047;28;20028;-67
2023/12/10 07:53:28;;;;;;;16.17;5.22;;;;;;;1.41;86.81;99533.59;5087101;28;20089;-66
2023/12/10 07:55:54;;;;;;;3.53;2.75;;;;;;;1.49;87.13;99549.06;5068905;28;20032;-66
2023/12/10 07:58:19;;;;;;;7.72;2.38;;;;;;;1.57;86.72;99541.47;5086737;28;20120;-66
2023/12/10 08:00:47;;;;;;;1.55;1.20;;;;;;;1.50;86.66;99544.81;5087156;28;20020;-66
2023/12/10 08:03:13;;;;;;;1.73;1.60;;;;;;;1.52;86.81;99549.09;5086704;28;20055;-66
2023/12/10 08:05:38;;;;;;;1.20;1.10;;;;;;;1.62;86.48;99552.66;5086603;28;20081;-66
2023/12/10 08:08:04;;;;;;;3.15;2.97;;;;;;;1.57;86.83;99569.63;5086761;28;20178;-66
2023/12/10 08:10:29;;;;;;;0.70;0.70;;;;;;;1.66;86.43;99546.72;5086644;28;20024;-66
2023/12/10 08:12:55;;;;;;;8.10;4.22;;;;;;;1.71;85.64;99550.22;5086556;28;20059;-64
2023/12/10 08:15:21;;;;;;;1.38;1.30;;;;;;;1.66;86.33;99556.97;5086466;28;20070;-65
2023/12/10 08:17:46;;;;;;;2.10;2.00;;;;;;;1.59;86.50;99550.06;5086291;28;20024;-67
2023/12/10 08:20:12;;;;;;;1.15;1.05;;;;;;;1.79;85.70;99577.63;5086692;28;20032;-66
2023/12/10 08:22:38;;;;;;;1.38;1.30;;;;;;;1.71;85.63;99555.34;5086397;28;20024;-65
2023/12/10 08:25:04;;;;;;;1.00;0.80;;;;;;;1.70;86.52;99563.88;5086151;28;20024;-66
2023/12/10 08:27:29;;;;;;;2.33;2.17;;;;;;;1.78;85.54;99553.72;5086496;28;20028;-66
2023/12/10 08:29:55;;;;;;;1.08;1.05;;;;;;;1.76;85.53;99557.13;5085888;28;20074;-66
2023/12/10 08:32:21;;;;;;;2.10;2.00;;;;;;;1.72;86.21;99564.75;5086161;28;20537;-66
2023/12/10 08:34:46;;;;;;;6.32;1.85;;;;;;;1.73;86.63;99557.91;5067979;28;20031;-66
2023/12/10 08:37:12;;;;;;;0.70;0.70;;;;;;;1.83;85.89;99553.78;5068070;28;20047;-65
2023/12/10 08:39:38;;;;;;;1.55;1.45;;;;;;;1.79;85.90;99562.28;5086160;28;20020;-66
2023/12/10 08:42:03;;;;;;;3.15;0.73;;;;;;;1.81;85.83;99560.56;5086036;28;20027;-66
2023/12/10 08:44:29;;;;;;;5.78;2.88;;;;;;;1.78;86.00;99584.44;5067966;28;20162;-65
2023/12/10 08:46:54;;;;;;;0.60;0.60;;;;;;;1.80;85.80;99574.22;5085839;28;20024;-65
2023/12/10 08:49:20;;;;;;;14.25;1.98;;;;;;;1.75;86.41;99584.41;5085921;28;20115;-64
2023/12/10 08:51:45;;;;;;;1.83;1.70;;;;;;;1.84;86.33;99575.97;5085732;28;20020;-65
2023/12/10 08:54:11;;;;;;;0.70;0.70;;;;;;;1.97;84.93;99574.44;5085439;28;20023;-65
2023/12/10 08:56:37;;;;;;;1.52;1.42;;;;;;;1.79;85.80;99572.50;5067489;28;20040;-64
2023/12/10 08:59:03;;;;;;;1.75;1.63;;;;;;;1.81;86.37;99581.94;5067760;28;20024;-65
2023/12/10 09:01:29;;;;;;;0.70;0.70;;;;;;;1.80;86.68;99581.91;5085746;28;20020;-65
2023/12/10 09:03:55;;;;;;;2.97;2.40;;;;;;;2.17;84.48;99592.63;5085485;28;20164;-66
2023/12/10 09:06:20;;;;;;;1.70;1.05;;;;;;;1.96;84.83;99576.16;5067523;28;20023;-65
2023/12/10 09:08:46;;;;;;;4.45;1.67;;;;;;;2.16;84.52;99582.38;5085601;28;20441;-65
2023/12/10 09:11:11;;;;;;;0.80;0.80;;;;;;;2.19;83.48;99585.00;5085375;28;20016;-66
2023/12/10 09:13:37;;;;;;;0.75;0.75;;;;;;;1.87;84.57;99583.69;5085458;28;20491;-65
2023/12/10 09:16:02;;;;;;;4.90;4.50;;;;;;;1.85;85.66;99605.88;5085453;28;20047;-65
2023/12/10 09:18:28;;;;;;;3.90;2.58;;;;;;;1.83;85.53;99595.63;5066833;28;20024;-64
2023/12/10 09:20:54;;;;;;;0.70;0.68;;;;;;;1.80;86.12;99608.38;5085461;28;20044;-65
2023/12/10 09:23:20;;;;;;;4.15;3.03;;;;;;;1.97;85.21;99569.34;5085074;28;20028;-65
2023/12/10 09:25:46;;;;;;;2.28;2.10;;;;;;;1.80;85.63;99607.50;5066863;28;20020;-64
2023/12/10 09:28:11;;;;;;;1.83;1.27;;;;;;;1.91;85.25;99634.13;5084765;28;20100;-64
2023/12/10 09:30:37;;;;;;;4.60;1.55;;;;;;;1.80;85.88;99620.31;5066778;28;20067;-67
2023/12/10 09:33:05;;;;;;;4.05;1.75;;;;;;;1.86;86.03;99594.78;5084668;28;20045;-66
2023/12/10 09:35:31;;;;;;;0.75;0.75;;;;;;;1.83;86.80;99604.97;5084659;28;20081;-66
2023/12/10 09:37:56;;;;;;;2.28;2.08;;;;;;;1.81;87.04;99616.88;5084881;28;20100;-66
2023/12/10 09:40:22;;;;;;;1.88;1.77;;;;;;;1.94;87.02;99628.16;5084716;28;20050;-68
2023/12/10 09:42:47;;;;;;;1.80;1.70;;;;;;;1.85;86.65;99623.78;5084768;28;20127;-66
2023/12/10 09:45:13;;;;;;;0.95;0.95;;;;;;;1.92;87.02;99634.97;5084719;28;20055;-68
2023/12/10 09:47:40;;;;;;;2.13;2.03;;;;;;;2.12;85.51;99634.41;5084725;28;20055;-67
2023/12/10 09:50:06;;;;;;;1.77;1.67;;;;;;;1.97;86.00;99634.19;5084577;28;20036;-66
2023/12/10 09:52:31;;;;;;;1.23;1.08;;;;;;;1.98;85.93;99625.66;5084346;28;20025;-66
2023/12/10 09:54:57;;;;;;;1.60;1.50;;;;;;;2.08;86.18;99628.34;5084586;28;20024;-66
2023/12/10 09:57:22;;;;;;;0.55;0.52;;;;;;;1.96;86.13;99623.94;5084337;28;20052;-65
2023/12/10 09:59:48;;;;;;;2.55;2.45;;;;;;;2.05;86.26;99642.00;5066396;28;20032;-67
2023/12/10 10:02:15;;;;;;;1.23;1.20;;;;;;;2.13;86.04;99631.84;5084452;28;20036;-66
2023/12/10 10:04:42;;;;;;;1.77;1.25;;;;;;;2.18;85.77;99643.03;5083563;28;20024;-66
2023/12/10 10:07:07;;;;;;;1.33;1.25;;;;;;;2.05;85.65;99636.00;5084549;28;20029;-65
2023/12/10 10:09:36;;;;;;;3.35;1.80;;;;;;;2.04;86.22;99642.84;5066653;28;20115;-66
2023/12/10 10:12:02;;;;;;;0.60;0.60;;;;;;;1.94;86.51;99634.16;5084532;28;20028;-66
2023/12/10 10:14:28;;;;;;;1.50;1.40;;;;;;;1.94;86.09;99611.13;5084555;28;20107;-65
2023/12/10 10:16:53;;;;;;;1.58;1.48;;;;;;;2.07;85.84;99627.53;5084481;28;20021;-66
2023/12/10 10:19:18;;;;;;;0.98;0.98;;;;;;;2.07;86.03;99629.22;5084328;28;20025;-66
2023/12/10 10:21:44;;;;;;;1.00;0.75;;;;;;;2.15;85.28;99632.75;5084423;28;20044;-67
2023/12/10 10:24:11;;;;;;;1.45;0.80;;;;;;;2.11;85.14;99620.72;5084448;28;20029;-67
2023/12/10 10:26:37;;;;;;;0.88;0.88;;;;;;;2.05;85.85;99636.00;5084174;28;20099;-67
2023/12/10 10:29:04;;;;;;;1.92;1.50;;;;;;;2.14;85.36;99628.44;5066451;28;20030;-67
2023/12/10 10:31:32;;;;;;;2.70;1.17;;;;;;;2.41;83.67;99637.31;5066198;28;20028;-66
2023/12/10 10:34:01;;;;;;;0.88;0.88;;;;;;;2.04;84.80;99632.59;5083979;28;20021;-66
2023/12/10 10:36:27;;;;;;;0.85;0.85;;;;;;;2.04;85.37;99630.03;5084093;28;20020;-66
2023/12/10 10:38:52;;;;;;;1.33;1.23;;;;;;;2.20;84.32;99631.13;5066070;28;20036;-66
2023/12/10 10:41:18;;;;;;;2.22;2.03;;;;;;;2.15;84.68;99632.75;5084138;28;20203;-69
2023/12/10 10:43:44;;;;;;;1.55;1.45;;;;;;;2.03;85.46;99633.41;5066242;28;20448;-67
2023/12/10 10:46:10;;;;;;;0.50;0.50;;;;;;;2.07;85.95;99636.88;5066087;28;20515;-67
2023/12/10 10:48:38;;;;;;;5.85;1.27;;;;;;;2.01;85.97;99627.44;5084027;28;20017;-67
2023/12/10 10:51:05;;;;;;;2.25;1.63;;;;;;;2.10;85.85;99644.63;5065886;28;20036;-66
2023/12/10 10:53:33;;;;;;;2.83;1.85;;;;;;;2.18;84.94;99626.78;5084212;28;20044;-66
2023/12/10 10:55:59;;;;;;;1.42;1.33;;;;;;;2.15;84.99;99647.25;5065569;28;20029;-66
2023/12/10 10:58:29;;;;;;;0.70;0.70;;;;;;;2.17;84.97;99669.47;5084133;28;20091;-68
2023/12/10 11:00:56;;;;;;;0.90;0.77;;;;;;;2.11;84.95;99636.09;5084042;28;20012;-68
2023/12/10 11:03:24;;;;;;;0.77;0.68;;;;;;;2.17;84.38;99631.03;5083810;28;20028;-67
2023/12/10 11:05:49;;;;;;;1.92;1.83;;;;;;;2.03;85.62;99623.19;5083460;28;20150;-68
2023/12/10 11:08:15;;;;;;;2.55;2.35;;;;;;;2.23;84.93;99631.16;5083796;28;20473;-68
2023/12/10 11:10:45;;;;;;;1.13;1.02;;;;;;;2.12;85.31;99631.84;5083806;28;20016;-69
2023/12/10 11:13:11;;;;;;;3.88;2.55;;;;;;;2.02;85.60;99630.84;5065678;28;20032;-69
2023/12/10 11:15:36;;;;;;;6.95;2.00;;;;;;;2.09;85.70;99632.66;5083978;28;20461;-68
2023/12/10 11:18:02;;;;;;;1.30;1.20;;;;;;;2.18;85.89;99630.22;5069111;28;20054;-68
2023/12/10 11:20:47;;;;;;;1.63;1.17;;;;;;;2.22;85.78;99641.38;5087525;28;20036;-68
2023/12/10 11:23:16;;;;;;;0.47;0.47;;;;;;;2.17;85.68;99645.56;5087462;28;20024;-67
2023/12/10 11:25:43;;;;;;;2.25;1.63;;;;;;;2.37;84.51;99643.25;5069324;28;20055;-67
2023/12/10 11:28:21;;;;;;;1.83;1.10;;;;;;;2.28;84.00;99625.22;5087120;28;20103;-68
2023/12/10 11:30:47;;;;;;;5.85;2.10;;;;;;;2.20;85.02;99625.13;5069041;28;20036;-75
2023/12/10 11:33:14;;;;;;;0.60;0.60;;;;;;;2.29;84.85;99619.25;5086811;28;20203;-66
2023/12/10 11:35:41;;;;;;;1.13;1.05;;;;;;;2.19;85.60;99624.25;5087067;28;20028;-67